Time;durP1;ratioP1;P1;durP2;ratioP2;P2;SDS_P1;SDS_P2;PMS_P1;PMS_P2;Temp;Humidity;BMP_temperature;BMP_pressure;BME280_temperature;BME280_humidity;BME280_pressure;Samples;Min_cycle;Max_cycle;Signal;HPM_P1;HPM_P2
2023/02/07 00:01:10;;;;;;;8.50;5.10;;;;;;;;;;106203;1252;61144;-44
2023/02/07 00:03:38;;;;;;;10.20;6.40;;;;;;;;;;106201;1253;60306;-46
2023/02/07 00:06:07;;;;;;;12.10;7.30;;;;;;;;;;106005;1248;60329;-43
2023/02/07 00:08:36;;;;;;;10.30;6.80;;;;;;;;;;106477;1253;60552;-43
2023/02/07 00:11:05;;;;;;;11.30;6.90;;;;;;;;;;106090;1253;59348;-45
2023/02/07 00:13:33;;;;;;;13.50;8.20;;;;;;;;;;105963;1251;61835;-42
2023/02/07 00:16:01;;;;;;;13.70;7.80;;;;;;;;;;106046;1252;60402;-43
2023/02/07 00:18:29;;;;;;;13.00;7.90;;;;;;;;;;105924;1248;60793;-47
2023/02/07 00:21:01;;;;;;;12.60;7.80;;;;;;;;;;105790;1256;60405;-45
2023/02/07 00:23:30;;;;;;;11.20;6.80;;;;;;;;;;105910;1253;60421;-46
2023/02/07 00:25:57;;;;;;;9.30;6.10;;;;;;;;;;106228;1248;62097;-43
2023/02/07 00:28:26;;;;;;;11.10;6.10;;;;;;;;;;105991;1253;60398;-45
2023/02/07 00:31:01;;;;;;;10.70;5.90;;;;;;;;;;106139;1248;60681;-44
2023/02/07 00:33:33;;;;;;;9.70;5.30;;;;;;;;;;106084;1248;60382;-43
2023/02/07 00:36:02;;;;;;;8.70;5.20;;;;;;;;;;106250;1248;60436;-41
2023/02/07 00:38:30;;;;;;;9.00;5.00;;;;;;;;;;106016;1253;62136;-46
2023/02/07 00:41:00;;;;;;;9.90;5.40;;;;;;;;;;106381;1253;60357;-44
2023/02/07 00:43:31;;;;;;;8.60;5.30;;;;;;;;;;105966;1253;60820;-45
2023/02/07 00:45:59;;;;;;;9.80;5.90;;;;;;;;;;106015;1253;58966;-43
2023/02/07 00:48:28;;;;;;;9.00;5.40;;;;;;;;;;106420;1253;60405;-44
2023/02/07 00:50:56;;;;;;;8.10;5.10;;;;;;;;;;105830;1249;61717;-43
2023/02/07 00:53:24;;;;;;;8.70;5.80;;;;;;;;;;106096;1254;60540;-47
2023/02/07 00:55:52;;;;;;;13.20;6.60;;;;;;;;;;106178;1251;60785;-44
2023/02/07 00:58:20;;;;;;;14.30;7.70;;;;;;;;;;105914;1254;60584;-45
2023/02/07 01:00:48;;;;;;;11.90;6.80;;;;;;;;;;106022;1253;60697;-46
2023/02/07 01:03:17;;;;;;;12.60;7.00;;;;;;;;;;105990;1248;62144;-44
2023/02/07 01:05:45;;;;;;;12.20;6.60;;;;;;;;;;106130;1253;60425;-47
2023/02/07 01:08:16;;;;;;;11.10;7.60;;;;;;;;;;105914;1248;60955;-43
2023/02/07 01:10:44;;;;;;;11.00;7.30;;;;;;;;;;106027;1253;60549;-45
2023/02/07 01:13:12;;;;;;;14.20;8.30;;;;;;;;;;105910;1252;60795;-46
2023/02/07 01:15:42;;;;;;;10.90;6.30;;;;;;;;;;106007;1251;61855;-41
2023/02/07 01:18:10;;;;;;;11.50;6.20;;;;;;;;;;106029;1253;60329;-45
2023/02/07 01:20:39;;;;;;;10.10;6.10;;;;;;;;;;105992;1254;60569;-44
2023/02/07 01:23:07;;;;;;;6.50;4.80;;;;;;;;;;107284;1251;60497;-42
2023/02/07 01:25:36;;;;;;;11.70;6.40;;;;;;;;;;106096;1248;60404;-46
2023/02/07 01:28:04;;;;;;;13.30;5.90;;;;;;;;;;106379;1252;60961;-46
2023/02/07 01:30:33;;;;;;;9.40;5.20;;;;;;;;;;106380;1252;60422;-46
2023/02/07 01:33:01;;;;;;;10.90;6.80;;;;;;;;;;105827;1254;60893;-44
2023/02/07 01:35:29;;;;;;;9.30;5.80;;;;;;;;;;105958;1257;61067;-47
2023/02/07 01:37:58;;;;;;;10.30;6.20;;;;;;;;;;106167;1249;60450;-43
2023/02/07 01:40:26;;;;;;;8.50;5.60;;;;;;;;;;106244;1248;61032;-46
2023/02/07 01:42:54;;;;;;;6.10;5.10;;;;;;;;;;105924;1253;60622;-44
2023/02/07 01:45:30;;;;;;;7.30;5.20;;;;;;;;;;106033;1250;60505;-43
2023/02/07 01:47:59;;;;;;;9.30;5.50;;;;;;;;;;106260;1253;60526;-42
2023/02/07 01:50:31;;;;;;;10.20;6.30;;;;;;;;;;105744;1248;60532;-45
2023/02/07 01:52:59;;;;;;;10.30;6.70;;;;;;;;;;105974;1248;62165;-43
2023/02/07 01:55:28;;;;;;;15.20;8.00;;;;;;;;;;106257;1252;60338;-43
2023/02/07 01:57:56;;;;;;;9.90;6.90;;;;;;;;;;106221;1251;60643;-45
2023/02/07 02:00:25;;;;;;;13.20;8.00;;;;;;;;;;106044;1254;61101;-46
2023/02/07 02:02:53;;;;;;;13.30;8.00;;;;;;;;;;106139;1248;60570;-44
2023/02/07 02:05:22;;;;;;;13.40;8.30;;;;;;;;;;105942;1256;62336;-43
2023/02/07 02:07:51;;;;;;;10.80;7.40;;;;;;;;;;105899;1257;60427;-43
2023/02/07 02:10:20;;;;;;;12.80;8.10;;;;;;;;;;106025;1251;60529;-44
2023/02/07 02:12:57;;;;;;;11.30;6.30;;;;;;;;;;106034;1254;60357;-46
2023/02/07 02:15:30;;;;;;;10.80;6.40;;;;;;;;;;106063;1253;60407;-44
2023/02/07 02:17:59;;;;;;;9.00;5.40;;;;;;;;;;105938;1254;200925;-45
2023/02/07 02:22:44;;;;;;;10.90;6.20;;;;;;;;;;102656;1293;600494;-43
2023/02/07 02:25:12;;;;;;;11.80;7.10;;;;;;;;;;105030;1264;59014;-43
2023/02/07 02:27:58;;;;;;;10.20;5.90;;;;;;;;;;104935;1266;59088;-43
2023/02/07 02:30:45;;;;;;;9.10;5.60;;;;;;;;;;104717;1271;60298;-45
2023/02/07 02:33:17;;;;;;;11.70;6.10;;;;;;;;;;104733;1269;58986;-43
2023/02/07 02:35:54;;;;;;;10.40;5.70;;;;;;;;;;105497;1258;137470;-47
2023/02/07 02:38:29;;;;;;;15.00;6.40;;;;;;;;;;105810;1260;59449;-45
2023/02/07 02:41:24;;;;;;;9.80;5.20;;;;;;;;;;105560;1254;59362;-43
2023/02/07 02:44:12;;;;;;;8.10;5.20;;;;;;;;;;105482;1257;59483;-43
2023/02/07 02:46:40;;;;;;;10.60;5.40;;;;;;;;;;105527;1254;58940;-47
2023/02/07 02:49:10;;;;;;;9.80;5.00;;;;;;;;;;105543;1259;60544;-44
2023/02/07 02:51:38;;;;;;;7.40;4.70;;;;;;;;;;105632;1257;59647;-46
2023/02/07 02:54:25;;;;;;;13.70;6.00;;;;;;;;;;106010;1258;59564;-48
2023/02/07 02:57:00;;;;;;;9.50;5.50;;;;;;;;;;105483;1254;61310;-46
2023/02/07 02:59:28;;;;;;;;;;;;;;;;;;105609;1260;59547;-48
2023/02/07 03:02:02;;;;;;;11.70;6.50;;;;;;;;;;105435;1258;60607;-47
2023/02/07 03:04:50;;;;;;;14.50;6.70;;;;;;;;;;105475;1255;59697;-48
2023/02/07 03:07:32;;;;;;;9.80;5.70;;;;;;;;;;105530;1254;59658;-47
2023/02/07 03:10:03;;;;;;;10.40;5.80;;;;;;;;;;105457;1255;60509;-47
2023/02/07 03:12:33;;;;;;;8.60;5.60;;;;;;;;;;105420;1257;59710;-42
2023/02/07 03:15:04;;;;;;;9.50;5.30;;;;;;;;;;105523;1254;61056;-46
2023/02/07 03:17:52;;;;;;;11.70;6.40;;;;;;;;;;105469;1258;59541;-46
2023/02/07 03:20:25;;;;;;;9.60;5.90;;;;;;;;;;105433;1254;60797;-48
2023/02/07 03:22:55;;;;;;;11.30;6.10;;;;;;;;;;105453;1253;60366;-47
2023/02/07 03:25:23;;;;;;;13.60;5.20;;;;;;;;;;105708;1259;59795;-48
2023/02/07 03:27:51;;;;;;;11.10;5.90;;;;;;;;;;105585;1254;60587;-47
2023/02/07 03:30:19;;;;;;;8.80;4.70;;;;;;;;;;105548;1256;59598;-46
2023/02/07 03:32:50;;;;;;;10.50;5.80;;;;;;;;;;105525;1255;59709;-45
2023/02/07 03:35:19;;;;;;;9.40;6.00;;;;;;;;;;105489;1254;61228;-44
2023/02/07 03:37:51;;;;;;;9.50;5.50;;;;;;;;;;105497;1257;59634;-48
2023/02/07 03:40:19;;;;;;;9.80;5.60;;;;;;;;;;105339;1254;61003;-48
2023/02/07 03:43:07;;;;;;;9.80;5.30;;;;;;;;;;105393;1260;59730;-47
2023/02/07 03:45:35;;;;;;;11.50;6.00;;;;;;;;;;105451;1254;59900;-48
2023/02/07 03:48:04;;;;;;;8.90;5.20;;;;;;;;;;105550;1260;60061;-44
2023/02/07 03:50:33;;;;;;;10.10;5.70;;;;;;;;;;105694;1258;59640;-45
2023/02/07 03:53:01;;;;;;;10.30;6.40;;;;;;;;;;105992;1254;60829;-47
2023/02/07 03:55:30;;;;;;;12.50;7.70;;;;;;;;;;105984;1258;59717;-48
2023/02/07 03:57:58;;;;;;;12.30;6.50;;;;;;;;;;105917;1258;59599;-47
2023/02/07 04:00:26;;;;;;;12.80;6.90;;;;;;;;;;105848;1254;61339;-49
2023/02/07 04:02:54;;;;;;;10.90;6.80;;;;;;;;;;105457;1254;59547;-44
2023/02/07 04:05:22;;;;;;;11.90;6.70;;;;;;;;;;105063;1259;60729;-46
2023/02/07 04:07:50;;;;;;;11.50;6.50;;;;;;;;;;105346;1259;59741;-46
2023/02/07 04:10:18;;;;;;;11.00;6.40;;;;;;;;;;105303;1257;59613;-49
2023/02/07 04:12:46;;;;;;;7.00;4.70;;;;;;;;;;105751;1254;61037;-47
2023/02/07 04:15:14;;;;;;;11.20;5.90;;;;;;;;;;105341;1257;59632;-48
2023/02/07 04:17:42;;;;;;;12.10;5.90;;;;;;;;;;105802;1258;60840;-48
2023/02/07 04:20:10;;;;;;;9.30;5.20;;;;;;;;;;105622;1259;59676;-45
2023/02/07 04:22:38;;;;;;;10.70;5.80;;;;;;;;;;105616;1254;59714;-47
2023/02/07 04:25:06;;;;;;;10.80;5.10;;;;;;;;;;105686;1257;61044;-47
2023/02/07 04:27:35;;;;;;;8.90;5.10;;;;;;;;;;105785;1256;59623;-48
2023/02/07 04:30:03;;;;;;;8.90;4.60;;;;;;;;;;105854;1258;60495;-48
2023/02/07 04:32:32;;;;;;;7.10;4.50;;;;;;;;;;105742;1260;59615;-48
2023/02/07 04:34:59;;;;;;;10.00;5.20;;;;;;;;;;105521;1254;59618;-46
2023/02/07 04:37:28;;;;;;;10.50;5.60;;;;;;;;;;105484;1256;61593;-47
2023/02/07 04:39:56;;;;;;;8.10;4.90;;;;;;;;;;105480;1258;59553;-48
2023/02/07 04:42:24;;;;;;;10.20;6.10;;;;;;;;;;105864;1259;60579;-47
2023/02/07 04:44:52;;;;;;;11.60;6.70;;;;;;;;;;105716;1259;59753;-48
2023/02/07 04:47:20;;;;;;;10.20;6.60;;;;;;;;;;105656;1257;59621;-47
2023/02/07 04:49:48;;;;;;;8.70;5.50;;;;;;;;;;105578;1254;61548;-48
2023/02/07 04:52:16;;;;;;;13.10;7.00;;;;;;;;;;105557;1254;59931;-47
2023/02/07 04:54:44;;;;;;;17.20;8.20;;;;;;;;;;106701;1256;60485;-46
2023/02/07 04:57:12;;;;;;;10.10;7.20;;;;;;;;;;105489;1256;59525;-47
2023/02/07 04:59:40;;;;;;;11.60;7.70;;;;;;;;;;105487;1254;59748;-47
2023/02/07 05:02:08;;;;;;;16.40;7.60;;;;;;;;;;105210;1257;60360;-48
2023/02/07 05:04:37;;;;;;;15.60;8.70;;;;;;;;;;105326;1251;59663;-48
2023/02/07 05:07:05;;;;;;;11.10;6.50;;;;;;;;;;106620;1255;60693;-48
2023/02/07 05:09:33;;;;;;;14.90;8.10;;;;;;;;;;105751;1256;59621;-47
2023/02/07 05:12:02;;;;;;;13.50;8.20;;;;;;;;;;105702;1256;59834;-48
2023/02/07 05:14:32;;;;;;;14.90;8.60;;;;;;;;;;105684;1251;59737;-45
2023/02/07 05:17:00;;;;;;;14.30;8.50;;;;;;;;;;105712;1255;61236;-47
2023/02/07 05:19:28;;;;;;;16.70;10.40;;;;;;;;;;105729;1256;61050;-48
2023/02/07 05:21:56;;;;;;;19.20;10.80;;;;;;;;;;105871;1256;59557;-46
2023/02/07 05:24:24;;;;;;;22.90;12.10;;;;;;;;;;105707;1256;59641;-47
2023/02/07 05:26:52;;;;;;;20.40;11.60;;;;;;;;;;105475;1251;61046;-48
2023/02/07 05:29:20;;;;;;;22.00;11.90;;;;;;;;;;106675;1255;59592;-46
2023/02/07 05:34:37;;;;;;;23.60;12.90;;;;;;;;;;105843;1251;59743;-45
2023/02/07 05:37:05;;;;;;;29.70;13.80;;;;;;;;;;106104;1253;59621;-47
2023/02/07 05:39:33;;;;;;;23.50;13.00;;;;;;;;;;106499;1251;61257;-45
2023/02/07 05:42:01;;;;;;;25.30;13.70;;;;;;;;;;106071;1253;60684;-45
2023/02/07 05:44:29;;;;;;;30.80;15.00;;;;;;;;;;105670;1257;60578;-47
2023/02/07 05:46:57;;;;;;;31.10;13.80;;;;;;;;;;105922;1251;59729;-47
2023/02/07 05:49:25;;;;;;;22.40;13.40;;;;;;;;;;105800;1253;59632;-47
2023/02/07 05:51:53;;;;;;;25.10;13.20;;;;;;;;;;105656;1254;60353;-46
2023/02/07 05:54:25;;;;;;;20.10;12.80;;;;;;;;;;105642;1255;60225;-48
2023/02/07 05:56:53;;;;;;;20.60;12.50;;;;;;;;;;105701;1251;60736;-44
2023/02/07 05:59:21;;;;;;;17.40;11.40;;;;;;;;;;105953;1256;59058;-47
2023/02/07 06:01:49;;;;;;;18.80;11.10;;;;;;;;;;105592;1251;60449;-48
2023/02/07 06:04:17;;;;;;;20.10;11.50;;;;;;;;;;105775;1251;61289;-47
2023/02/07 06:06:45;;;;;;;22.60;11.80;;;;;;;;;;105862;1255;59713;-47
2023/02/07 06:09:13;;;;;;;16.90;10.00;;;;;;;;;;105791;1254;60307;-46
2023/02/07 06:11:41;;;;;;;19.40;10.50;;;;;;;;;;105563;1255;61948;-45
2023/02/07 06:14:10;;;;;;;19.00;10.30;;;;;;;;;;107246;1253;59326;-43
2023/02/07 06:16:43;;;;;;;17.20;10.20;;;;;;;;;;105631;1251;61805;-47
2023/02/07 06:19:11;;;;;;;18.70;10.30;;;;;;;;;;105681;1256;59816;-46
2023/02/07 06:21:39;;;;;;;17.00;9.70;;;;;;;;;;105727;1251;60887;-46
2023/02/07 06:24:14;;;;;;;15.60;9.70;;;;;;;;;;105837;1253;59608;-45
2023/02/07 06:26:42;;;;;;;20.20;11.10;;;;;;;;;;105953;1254;59710;-47
2023/02/07 06:29:10;;;;;;;17.40;10.60;;;;;;;;;;105830;1251;61174;-48
2023/02/07 06:31:38;;;;;;;18.70;10.90;;;;;;;;;;105790;1256;59503;-47
2023/02/07 06:34:06;;;;;;;14.70;9.80;;;;;;;;;;106040;1251;60267;-47
2023/02/07 06:36:34;;;;;;;20.00;10.00;;;;;;;;;;105992;1255;60552;-45
2023/02/07 06:39:02;;;;;;;20.60;11.00;;;;;;;;;;105876;1251;60651;-47
2023/02/07 06:41:30;;;;;;;19.50;10.60;;;;;;;;;;106290;1251;61841;-48
2023/02/07 06:43:58;;;;;;;16.50;10.00;;;;;;;;;;105816;1251;60419;-48
2023/02/07 06:46:26;;;;;;;14.40;9.10;;;;;;;;;;105751;1256;61023;-47
2023/02/07 06:48:54;;;;;;;12.70;8.70;;;;;;;;;;105581;1256;60444;-47
2023/02/07 06:51:22;;;;;;;14.20;7.70;;;;;;;;;;105483;1251;60520;-45
2023/02/07 06:53:50;;;;;;;12.90;7.80;;;;;;;;;;105504;1251;62130;-46
2023/02/07 06:56:17;;;;;;;14.40;7.90;;;;;;;;;;105405;1251;60415;-46
2023/02/07 06:58:46;;;;;;;13.30;8.40;;;;;;;;;;105729;1255;60443;-46
2023/02/07 07:01:18;;;;;;;14.30;8.30;;;;;;;;;;105797;1256;60450;-47
2023/02/07 07:03:46;;;;;;;16.70;8.50;;;;;;;;;;105694;1251;60408;-45
2023/02/07 07:06:14;;;;;;;14.90;8.20;;;;;;;;;;105454;1251;61903;-45
2023/02/07 07:08:42;;;;;;;14.00;8.40;;;;;;;;;;105052;1251;60537;-47
2023/02/07 07:11:10;;;;;;;14.00;8.40;;;;;;;;;;106152;1251;60815;-48
2023/02/07 07:13:38;;;;;;;16.30;10.20;;;;;;;;;;105682;1256;60507;-48
2023/02/07 07:16:06;;;;;;;14.40;8.80;;;;;;;;;;105568;1251;60593;-45
2023/02/07 07:18:36;;;;;;;14.60;8.90;;;;;;;;;;105254;1251;60834;-46
2023/02/07 07:21:04;;;;;;;11.10;7.90;;;;;;;;;;105726;1257;60504;-47
2023/02/07 07:23:32;;;;;;;16.90;8.90;;;;;;;;;;105666;1253;60486;-48
2023/02/07 07:26:00;;;;;;;12.40;7.80;;;;;;;;;;106241;1253;60507;-46
2023/02/07 07:28:28;;;;;;;14.20;8.90;;;;;;;;;;106188;1251;60481;-47
2023/02/07 07:31:00;;;;;;;18.20;10.60;;;;;;;;;;105967;1251;62122;-46
2023/02/07 07:33:29;;;;;;;18.20;9.60;;;;;;;;;;106353;1251;60465;-47
2023/02/07 07:35:57;;;;;;;13.20;7.70;;;;;;;;;;105822;1251;60771;-47
2023/02/07 07:38:25;;;;;;;10.60;7.10;;;;;;;;;;106130;1256;60383;-48
2023/02/07 07:40:53;;;;;;;14.60;7.70;;;;;;;;;;105684;1254;60507;-48
2023/02/07 07:43:21;;;;;;;13.20;6.90;;;;;;;;;;105586;1251;62217;-48
2023/02/07 07:45:53;;;;;;;9.80;6.90;;;;;;;;;;106335;1255;60351;-45
2023/02/07 07:48:21;;;;;;;13.40;8.10;;;;;;;;;;105310;1251;62336;-47
2023/02/07 07:50:49;;;;;;;10.00;7.40;;;;;;;;;;105616;1256;60405;-47
2023/02/07 07:53:17;;;;;;;10.90;7.00;;;;;;;;;;105801;1251;60527;-47
2023/02/07 07:55:49;;;;;;;14.00;7.90;;;;;;;;;;105883;1251;63752;-48
2023/02/07 07:58:17;;;;;;;9.90;6.80;;;;;;;;;;105338;1254;60569;-48
2023/02/07 08:00:46;;;;;;;10.40;5.80;;;;;;;;;;105779;1251;60617;-47
2023/02/07 08:03:14;;;;;;;10.30;5.90;;;;;;;;;;105338;1254;60421;-46
2023/02/07 08:05:42;;;;;;;8.40;5.80;;;;;;;;;;105551;1251;60428;-47
2023/02/07 08:08:10;;;;;;;11.00;5.70;;;;;;;;;;106622;1251;62000;-48
2023/02/07 08:10:39;;;;;;;9.00;5.20;;;;;;;;;;106049;1251;60419;-46
2023/02/07 08:13:08;;;;;;;9.10;6.10;;;;;;;;;;105930;1251;60727;-47
2023/02/07 08:15:36;;;;;;;10.10;6.20;;;;;;;;;;105680;1252;60640;-47
2023/02/07 08:18:04;;;;;;;10.80;6.30;;;;;;;;;;108924;1251;58141;-48
2023/02/07 08:20:33;;;;;;;11.00;6.40;;;;;;;;;;106030;1251;62106;-49
2023/02/07 08:23:01;;;;;;;8.00;5.90;;;;;;;;;;105633;1255;61098;-48
2023/02/07 08:25:29;;;;;;;8.40;5.60;;;;;;;;;;106513;1251;60725;-46
2023/02/07 08:27:57;;;;;;;10.50;5.90;;;;;;;;;;105378;1251;60486;-48
2023/02/07 08:30:25;;;;;;;7.60;4.70;;;;;;;;;;106188;1251;60462;-50
2023/02/07 08:32:54;;;;;;;7.10;4.70;;;;;;;;;;105587;1251;61888;-47
2023/02/07 08:35:22;;;;;;;8.40;5.40;;;;;;;;;;109186;1250;58447;-48
2023/02/07 08:37:50;;;;;;;14.20;6.20;;;;;;;;;;109313;1254;60938;-48
2023/02/07 08:40:18;;;;;;;9.80;6.30;;;;;;;;;;107728;1254;60568;-48
2023/02/07 08:42:46;;;;;;;8.80;6.30;;;;;;;;;;105687;1255;60454;-47
2023/02/07 08:45:16;;;;;;;8.30;5.90;;;;;;;;;;105397;1253;61043;-49
2023/02/07 08:47:44;;;;;;;8.20;5.60;;;;;;;;;;105780;1255;60479;-48
2023/02/07 08:50:12;;;;;;;8.80;6.10;;;;;;;;;;105450;1251;61156;-48
2023/02/07 08:52:40;;;;;;;7.10;3.70;;;;;;;;;;105524;1251;60372;-48
2023/02/07 08:55:08;;;;;;;9.80;5.40;;;;;;;;;;106383;1253;60447;-47
2023/02/07 08:57:37;;;;;;;7.40;5.10;;;;;;;;;;106065;1251;62317;-48
2023/02/07 09:00:05;;;;;;;6.20;4.30;;;;;;;;;;106202;1253;60335;-47
2023/02/07 09:02:33;;;;;;;4.80;3.50;;;;;;;;;;105771;1251;61344;-47
2023/02/07 09:05:01;;;;;;;10.50;3.90;;;;;;;;;;106040;1251;60449;-48
2023/02/07 09:07:30;;;;;;;4.50;2.80;;;;;;;;;;105794;1251;60524;-46
2023/02/07 09:10:03;;;;;;;4.40;2.60;;;;;;;;;;106107;1251;62441;-47
2023/02/07 09:12:31;;;;;;;5.90;3.90;;;;;;;;;;106029;1255;60514;-48
2023/02/07 09:15:00;;;;;;;3.10;2.30;;;;;;;;;;105474;1251;60562;-49
2023/02/07 09:17:28;;;;;;;4.70;3.00;;;;;;;;;;105763;1256;60401;-45
2023/02/07 09:19:56;;;;;;;2.80;2.10;;;;;;;;;;105781;1254;60543;-45
2023/02/07 09:22:23;;;;;;;4.20;2.60;;;;;;;;;;105808;1251;62126;-47
2023/02/07 09:24:51;;;;;;;3.20;1.90;;;;;;;;;;105885;1256;60351;-47
2023/02/07 09:27:19;;;;;;;3.20;2.00;;;;;;;;;;105812;1255;60821;-48
2023/02/07 09:29:47;;;;;;;3.70;2.50;;;;;;;;;;106110;1257;60469;-46
2023/02/07 09:32:15;;;;;;;4.90;2.30;;;;;;;;;;106018;1251;60395;-45
2023/02/07 09:34:43;;;;;;;3.70;2.70;;;;;;;;;;107880;1251;61908;-49
2023/02/07 09:37:11;;;;;;;4.20;2.00;;;;;;;;;;105857;1253;60408;-48
2023/02/07 09:39:41;;;;;;;3.20;1.80;;;;;;;;;;105813;1251;60778;-45
2023/02/07 09:42:32;;;;;;;3.10;1.90;;;;;;;;;;105759;1251;60622;-47
2023/02/07 09:45:11;;;;;;;1.90;1.10;;;;;;;;;;106214;1251;60469;-48
2023/02/07 09:47:40;;;;;;;2.20;1.20;;;;;;;;;;106422;1251;62516;-48
2023/02/07 09:50:16;;;;;;;1.60;1.20;;;;;;;;;;107309;1255;59727;-45
2023/02/07 09:52:46;;;;;;;2.70;1.30;;;;;;;;;;105712;1251;60290;-46
2023/02/07 09:55:19;;;;;;;2.70;1.80;;;;;;;;;;105525;1257;60774;-47
2023/02/07 09:57:49;;;;;;;2.10;1.40;;;;;;;;;;105764;1251;60517;-48
2023/02/07 10:00:20;;;;;;;2.70;1.40;;;;;;;;;;105794;1253;62194;-46
2023/02/07 10:02:51;;;;;;;1.60;1.30;;;;;;;;;;106110;1251;60536;-46
2023/02/07 10:05:20;;;;;;;5.20;1.20;;;;;;;;;;105699;1255;60393;-47
2023/02/07 10:07:48;;;;;;;1.90;1.20;;;;;;;;;;105686;1259;61064;-47
2023/02/07 10:10:17;;;;;;;2.10;1.10;;;;;;;;;;105659;1250;60516;-47
2023/02/07 10:12:45;;;;;;;1.20;0.90;;;;;;;;;;105924;1251;62005;-46
2023/02/07 10:15:30;;;;;;;3.10;1.30;;;;;;;;;;105783;1251;60556;-47
2023/02/07 10:18:09;;;;;;;1.90;1.30;;;;;;;;;;105572;1251;60551;-47
2023/02/07 10:20:38;;;;;;;2.30;1.60;;;;;;;;;;105675;1255;60892;-47
2023/02/07 10:23:06;;;;;;;3.40;2.30;;;;;;;;;;105613;1251;60415;-45
2023/02/07 10:25:50;;;;;;;3.80;2.60;;;;;;;;;;105729;1251;62154;-46
2023/02/07 10:28:44;;;;;;;3.40;2.20;;;;;;;;;;105779;1256;60491;-47
2023/02/07 10:31:14;;;;;;;2.90;1.80;;;;;;;;;;106286;1251;60298;-46
2023/02/07 10:33:46;;;;;;;2.80;2.10;;;;;;;;;;106060;1255;60315;-45
2023/02/07 10:36:14;;;;;;;3.50;1.50;;;;;;;;;;106049;1251;60436;-49
2023/02/07 10:38:53;;;;;;;1.60;1.00;;;;;;;;;;107140;1254;62154;-47
2023/02/07 10:41:37;;;;;;;2.60;1.70;;;;;;;;;;105799;1256;60472;-46
2023/02/07 10:44:05;;;;;;;1.70;1.30;;;;;;;;;;105750;1251;60715;-45
2023/02/07 10:46:34;;;;;;;2.20;1.40;;;;;;;;;;106215;1253;60447;-48
2023/02/07 10:49:02;;;;;;;2.30;1.10;;;;;;;;;;105872;1251;60464;-47
2023/02/07 10:51:35;;;;;;;3.40;1.80;;;;;;;;;;105943;1251;61881;-48
2023/02/07 10:54:10;;;;;;;1.40;1.00;;;;;;;;;;105712;1255;60335;-47
2023/02/07 10:56:42;;;;;;;2.20;1.40;;;;;;;;;;105658;1254;60914;-48
2023/02/07 10:59:29;;;;;;;1.50;1.00;;;;;;;;;;105758;1251;60511;-48
2023/02/07 11:01:57;;;;;;;1.30;1.00;;;;;;;;;;105795;1251;60419;-45
2023/02/07 11:04:38;;;;;;;1.30;0.80;;;;;;;;;;105600;1251;61886;-48
2023/02/07 11:07:09;;;;;;;1.20;0.80;;;;;;;;;;105704;1259;60350;-45
2023/02/07 11:09:37;;;;;;;3.00;1.20;;;;;;;;;;106123;1251;60944;-47
2023/02/07 11:12:12;;;;;;;1.60;0.90;;;;;;;;;;105656;1259;60498;-48
2023/02/07 11:14:40;;;;;;;1.70;0.90;;;;;;;;;;105663;1251;60385;-48
2023/02/07 11:17:19;;;;;;;2.00;1.20;;;;;;;;;;105588;1251;62012;-48
2023/02/07 11:19:47;;;;;;;1.90;1.10;;;;;;;;;;105892;1256;60440;-45
2023/02/07 11:22:17;;;;;;;1.80;1.00;;;;;;;;;;105537;1251;60470;-44
2023/02/07 11:24:46;;;;;;;2.00;1.20;;;;;;;;;;107030;1256;60447;-43
2023/02/07 11:27:17;;;;;;;3.90;1.80;;;;;;;;;;105769;1251;61337;-47
2023/02/07 11:29:49;;;;;;;1.90;1.00;;;;;;;;;;105707;1251;61865;-48
2023/02/07 11:32:17;;;;;;;3.00;1.60;;;;;;;;;;105683;1253;60398;-46
2023/02/07 11:34:51;;;;;;;3.50;1.40;;;;;;;;;;105802;1251;60536;-46
2023/02/07 11:37:24;;;;;;;2.40;1.30;;;;;;;;;;106507;1251;60458;-46
2023/02/07 11:39:54;;;;;;;3.20;1.40;;;;;;;;;;105750;1256;60411;-47
2023/02/07 11:42:24;;;;;;;1.80;1.00;;;;;;;;;;105604;1255;62099;-46
2023/02/07 11:44:52;;;;;;;1.60;1.00;;;;;;;;;;105432;1259;60398;-47
2023/02/07 11:47:24;;;;;;;1.50;0.90;;;;;;;;;;105748;1256;62870;-45
2023/02/07 11:49:56;;;;;;;2.70;1.70;;;;;;;;;;106454;1256;60534;-48
2023/02/07 11:52:24;;;;;;;1.20;0.90;;;;;;;;;;105773;1251;60427;-49
2023/02/07 11:55:49;;;;;;;2.40;1.60;;;;;;;;;;102535;1290;600411;-45
2023/02/07 11:58:22;;;;;;;2.00;1.00;;;;;;;;;;108009;1266;59091;-47
2023/02/07 12:00:50;;;;;;;1.90;1.00;;;;;;;;;;104571;1264;59372;-47
2023/02/07 12:03:23;;;;;;;1.60;0.90;;;;;;;;;;104833;1265;60549;-48
2023/02/07 12:05:52;;;;;;;2.00;1.00;;;;;;;;;;104808;1266;59310;-49
2023/02/07 12:08:22;;;;;;;1.30;0.80;;;;;;;;;;104867;1264;148217;-47
2023/02/07 12:10:52;;;;;;;2.70;1.20;;;;;;;;;;106106;1253;59026;-48
2023/02/07 12:13:22;;;;;;;2.80;1.20;;;;;;;;;;105437;1252;59179;-47
2023/02/07 12:15:51;;;;;;;2.40;1.00;;;;;;;;;;106467;1254;60539;-46
2023/02/07 12:18:28;;;;;;;1.80;0.90;;;;;;;;;;105520;1257;59000;-48
2023/02/07 12:20:57;;;;;;;2.80;1.40;;;;;;;;;;105544;1257;60834;-49
2023/02/07 12:23:44;;;;;;;3.30;1.30;;;;;;;;;;105973;1253;59676;-47
2023/02/07 12:26:13;;;;;;;2.10;1.10;;;;;;;;;;105345;1254;59628;-49
2023/02/07 12:28:47;;;;;;;1.90;0.90;;;;;;;;;;105668;1253;61364;-48
2023/02/07 12:31:24;;;;;;;1.50;0.90;;;;;;;;;;105538;1255;60906;-49
2023/02/07 12:34:08;;;;;;;2.00;1.00;;;;;;;;;;107605;1253;61001;-47
2023/02/07 12:36:38;;;;;;;2.60;1.00;;;;;;;;;;105556;1255;59680;-49
2023/02/07 12:39:08;;;;;;;1.50;0.80;;;;;;;;;;105703;1253;59618;-47
2023/02/07 12:41:36;;;;;;;4.70;1.40;;;;;;;;;;105535;1254;60903;-47
2023/02/07 12:44:11;;;;;;;2.60;1.10;;;;;;;;;;105735;1253;59659;-48
2023/02/07 12:46:47;;;;;;;2.60;0.80;;;;;;;;;;105836;1257;61522;-48
2023/02/07 12:49:21;;;;;;;1.70;0.90;;;;;;;;;;105910;1253;59749;-48
2023/02/07 12:52:19;;;;;;;1.70;1.10;;;;;;;;;;105295;1254;59720;-48
2023/02/07 12:55:11;;;;;;;4.40;1.20;;;;;;;;;;105888;1257;61420;-46
2023/02/07 12:57:41;;;;;;;2.40;1.00;;;;;;;;;;105043;1260;59641;-48
2023/02/07 13:00:19;;;;;;;2.30;1.40;;;;;;;;;;105652;1259;60581;-48
2023/02/07 13:02:52;;;;;;;1.30;0.90;;;;;;;;;;105236;1254;59718;-46
2023/02/07 13:05:37;;;;;;;2.60;1.10;;;;;;;;;;105240;1254;61417;-46
2023/02/07 13:08:24;;;;;;;4.20;0.90;;;;;;;;;;105780;1259;61101;-46
2023/02/07 13:11:13;;;;;;;4.00;1.40;;;;;;;;;;105444;1259;59711;-48
2023/02/07 13:13:44;;;;;;;4.90;1.60;;;;;;;;;;109075;1254;60802;-46
2023/02/07 13:16:33;;;;;;;2.70;1.40;;;;;;;;;;107972;1258;59740;-46
2023/02/07 13:19:08;;;;;;;3.80;1.50;;;;;;;;;;105135;1254;60149;-47
2023/02/07 13:21:37;;;;;;;;;;;;;;;;;;106464;1256;61423;-47
2023/02/07 13:24:05;;;;;;;4.50;1.60;;;;;;;;;;104990;1259;60670;-47
2023/02/07 13:26:34;;;;;;;4.80;1.20;;;;;;;;;;105814;1254;60829;-47
2023/02/07 13:29:06;;;;;;;3.10;1.10;;;;;;;;;;105372;1257;59502;-45
2023/02/07 13:31:48;;;;;;;2.20;1.30;;;;;;;;;;105565;1257;59506;-46
2023/02/07 13:34:55;;;;;;;1.70;1.30;;;;;;;;;;105597;1258;61725;-47
2023/02/07 13:37:25;;;;;;;3.80;1.50;;;;;;;;;;104680;1264;59837;-45
2023/02/07 13:40:14;;;;;;;2.50;1.40;;;;;;;;;;104512;1262;59926;-48
2023/02/07 13:42:45;;;;;;;3.00;1.30;;;;;;;;;;104846;1259;60280;-47
2023/02/07 13:45:14;;;;;;;5.00;1.70;;;;;;;;;;105347;1254;59609;-47
2023/02/07 13:47:44;;;;;;;3.60;1.50;;;;;;;;;;105404;1255;61306;-47
2023/02/07 13:50:16;;;;;;;3.50;1.70;;;;;;;;;;105467;1257;59727;-45
2023/02/07 13:52:54;;;;;;;1.90;1.10;;;;;;;;;;109221;1253;60793;-47
2023/02/07 13:55:38;;;;;;;3.10;1.50;;;;;;;;;;105897;1256;59742;-47
2023/02/07 14:01:14;;;;;;;3.40;1.30;;;;;;;;;;105470;1257;61407;-46
2023/02/07 14:03:45;;;;;;;2.50;1.50;;;;;;;;;;105407;1257;59653;-46
2023/02/07 14:06:19;;;;;;;4.40;1.50;;;;;;;;;;105459;1260;60502;-47
2023/02/07 14:09:09;;;;;;;7.80;2.80;;;;;;;;;;105399;1258;59655;-48
2023/02/07 14:11:42;;;;;;;6.60;2.70;;;;;;;;;;105366;1256;59590;-48
2023/02/07 14:14:15;;;;;;;12.80;3.40;;;;;;;;;;105509;1257;61362;-49
2023/02/07 14:16:49;;;;;;;4.10;1.90;;;;;;;;;;105310;1259;59569;-46
2023/02/07 14:19:37;;;;;;;4.60;1.90;;;;;;;;;;105186;1254;60470;-47
2023/02/07 14:22:28;;;;;;;3.70;1.60;;;;;;;;;;105411;1255;59739;-48
2023/02/07 14:25:02;;;;;;;6.10;2.70;;;;;;;;;;105793;1254;61412;-46
2023/02/07 14:27:33;;;;;;;5.60;2.10;;;;;;;;;;105047;1255;60290;-46
2023/02/07 14:30:02;;;;;;;3.60;1.70;;;;;;;;;;104873;1257;59592;-47
2023/02/07 14:32:31;;;;;;;5.00;2.20;;;;;;;;;;104896;1254;60711;-46
2023/02/07 14:35:00;;;;;;;6.40;3.40;;;;;;;;;;105230;1258;59996;-47
2023/02/07 14:37:37;;;;;;;6.40;3.60;;;;;;;;;;105023;1254;59611;-48
2023/02/07 14:40:30;;;;;;;4.60;2.10;;;;;;;;;;105559;1254;61334;-48
2023/02/07 14:43:00;;;;;;;7.60;3.70;;;;;;;;;;105672;1258;59548;-48
2023/02/07 14:45:29;;;;;;;10.40;4.90;;;;;;;;;;105396;1260;59782;-48
2023/02/07 14:47:57;;;;;;;7.90;3.50;;;;;;;;;;105451;1255;59663;-47
2023/02/07 14:50:29;;;;;;;7.70;5.20;;;;;;;;;;105468;1254;60179;-48
2023/02/07 14:52:57;;;;;;;6.70;3.00;;;;;;;;;;105466;1257;61251;-44
2023/02/07 14:55:41;;;;;;;6.80;3.40;;;;;;;;;;105529;1253;59529;-47